WetterOnline ( https://www.wetteronline.de )

Wetter aktuell Burg b. Magdeburg

Aktuelles Wetter: Genthin (39m)

6-stündlich | Neueste Meldungen
Ortszeit Temperatur Wetter
Di, 22.10. 14:00 16.1° C bewölkt
Di, 22.10. 8:00 10.4° C bedeckt
Di, 22.10. 2:00 11.8° C leicht bewölkt
Mo, 21.10. 20:00 16.4° C bedeckt
Mo, 21.10. 14:00 17.8° C bedeckt
Mo, 21.10. 8:00 10.1° C leicht bewölkt
Mo, 21.10. 2:00 13.8° C bedeckt
So, 20.10. 20:00 15.9° C bedeckt
Ortszeit Temperatur Wetter
Di, 22.10. 15:00 16.2° C wolkig
Di, 22.10. 14:50 16.2° C wolkig
Di, 22.10. 14:40 16.3° C bewölkt
Di, 22.10. 14:30 16.0° C bewölkt
Di, 22.10. 14:20 16.0° C bewölkt
Di, 22.10. 14:10 16.3° C bewölkt
Di, 22.10. 14:00 16.1° C bewölkt
Di, 22.10. 13:30 16.0° C bewölkt
Di, 22.10. 13:00 16.1° C bewölkt
Di, 22.10. 12:30 15.5° C bedeckt
Di, 22.10. 12:00 15.2° C bedeckt
Ortszeit Relative Feuchte Sichtweite
Di, 22.10. 14:00 66% 45 km
Di, 22.10. 8:00 99% 11 km
Di, 22.10. 2:00 100% 16 km
Mo, 21.10. 20:00 88% 30 km
Mo, 21.10. 14:00 74% 20 km
Mo, 21.10. 8:00 100% 4.2 km
Mo, 21.10. 2:00 88% 6 km
So, 20.10. 20:00 86% 45 km
Ortszeit Relative Feuchte Sichtweite
Di, 22.10. 15:00 63% 50 km
Di, 22.10. 14:50 63% -
Di, 22.10. 14:40 64% -
Di, 22.10. 14:30 68% 50 km
Di, 22.10. 14:20 68% -
Di, 22.10. 14:10 65% -
Di, 22.10. 14:00 66% 45 km
Di, 22.10. 13:30 68% 50 km
Di, 22.10. 13:00 68% 40 km
Di, 22.10. 12:30 72% 60 km
Di, 22.10. 12:00 73% 45 km
Ortszeit Niederschlagsmenge Niederschlagsart
Di, 22.10. 14:00 0.0 l/m2 in 6 Std. -
Di, 22.10. 8:00 0.0 l/m2 in 12 Std. -
Di, 22.10. 2:00 0.0 l/m2 in 6 Std. -
Mo, 21.10. 20:00 0.0 l/m2 in 12 Std. -
Mo, 21.10. 14:00 0.0 l/m2 in 6 Std. -
Mo, 21.10. 8:00 0.0 l/m2 in 12 Std. -
Mo, 21.10. 2:00 0.0 l/m2 in 6 Std. -
So, 20.10. 20:00 0.1 l/m2 in 12 Std. Regen
Ortszeit Niederschlagsmenge Niederschlagsart
Di, 22.10. 15:00 0.0 l/m2 in 1 Std. -
Di, 22.10. 14:50 keine Meldung -
Di, 22.10. 14:40 keine Meldung -
Di, 22.10. 14:30 0.0 l/m2 in 1 Std. -
Di, 22.10. 14:20 keine Meldung -
Di, 22.10. 14:10 keine Meldung -
Di, 22.10. 14:00 0.0 l/m2 in 1 Std. -
Di, 22.10. 13:30 0.0 l/m2 in 1 Std. -
Di, 22.10. 13:00 0.0 l/m2 in 1 Std. -
Di, 22.10. 12:30 0.0 l/m2 in 1 Std. -
Di, 22.10. 12:00 0.0 l/m2 in 1 Std. -
Ortszeit Stärke Spitze Richtung
km/h Bft. km/h Grad Sektor
Di, 22.10. 14:00 7 2 20 240° SW
Di, 22.10. 8:00 0 0 11 - -
Di, 22.10. 2:00 6 1 9 230° SW
Mo, 21.10. 20:00 4 1 11 180° S
Mo, 21.10. 14:00 7 2 14 210° SW
Mo, 21.10. 8:00 6 1 20 200° S
Mo, 21.10. 2:00 11 2 18 120° SO
So, 20.10. 20:00 6 1 15 80° O
Ortszeit Stärke Spitze Richtung
km/h Bft. km/h Grad Sektor
Di, 22.10. 15:00 11 2 19 300° NW
Di, 22.10. 14:50 11 2 - 300° NW
Di, 22.10. 14:40 9 2 - 290° W
Di, 22.10. 14:30 11 2 18 290° W
Di, 22.10. 14:20 11 2 - 290° W
Di, 22.10. 14:10 7 2 - 270° W
Di, 22.10. 14:00 7 2 20 240° SW
Di, 22.10. 13:30 9 2 20 250° W
Di, 22.10. 13:00 4 1 11 240° SW
Di, 22.10. 12:30 6 1 9 270° W
Di, 22.10. 12:00 4 1 11 260° W
Ortszeit Untergrenze Bedeckung Gattung
total tief tief mittel hoch
Di, 22.10. 14:00 720 m 7/8 6/8 - - -
Di, 22.10. 8:00 3000 m 8/8 8/8 - - -
Di, 22.10. 2:00 4500 m 4/8 3/8 - - -
Mo, 21.10. 20:00 2700 m 8/8 8/8 - - -
Mo, 21.10. 14:00 4800 m 8/8 8/8 - - -
Mo, 21.10. 8:00 6900 m 4/8 1/8 - - -
Mo, 21.10. 2:00 3600 m 8/8 8/8 - - -
So, 20.10. 20:00 3000 m 8/8 8/8 - - -
Ortszeit Bedeckungsgrad in Achtel und Wolkenuntergrenze
Di, 22.10. 15:00 5(780m) 6(7200m) 7(8400m)
Di, 22.10. 14:50 5(780m) 6(7200m) 7(8400m)
Di, 22.10. 14:40 6(780m) 7(7200m)
Di, 22.10. 14:30 7(750m)
Di, 22.10. 14:20 7(750m)
Di, 22.10. 14:10 7(750m) 7(7500m)
Di, 22.10. 14:00 6(720m) 7(7500m)
Di, 22.10. 13:30 7(720m) 7(7500m)
Di, 22.10. 13:00 7(810m) 7(7200m) 7(7200m)
Di, 22.10. 12:30 8(780m)
Di, 22.10. 12:00 8(750m)
Ortszeit Luftdruck NN (hPa) Tendenz (hPa in 3 Std.)
Di, 22.10. 14:00 1024 - 0,4
Di, 22.10. 8:00 1023 + 1,0
Di, 22.10. 2:00 1022 + 0,8
Mo, 21.10. 20:00 1020 + 1,1
Mo, 21.10. 14:00 1018 + 0,9
Mo, 21.10. 8:00 1015 + 1,8
Mo, 21.10. 2:00 1011 + 0,2
So, 20.10. 20:00 1011 + 0,7
Ortszeit Luftdruck NN (hPa) Tendenz (hPa in 3 Std.)
Di, 22.10. 15:00 1024 - 0,5
Di, 22.10. 14:50 1024 keine Meldung
Di, 22.10. 14:40 1024 keine Meldung
Di, 22.10. 14:30 1024 - 0,2
Di, 22.10. 14:20 1024 keine Meldung
Di, 22.10. 14:10 1024 keine Meldung
Di, 22.10. 14:00 1024 - 0,4
Di, 22.10. 13:30 1024 + 0,1
Di, 22.10. 13:00 1024 + 0,1
Di, 22.10. 12:30 1025 + 1,3
Di, 22.10. 12:00 1025 + 1,3
Ortszeit Schneehöhe (cm)
Di, 22.10. 14:00 0
Di, 22.10. 8:00 0
Di, 22.10. 2:00 0
Mo, 21.10. 20:00 0
Mo, 21.10. 14:00 0
Mo, 21.10. 8:00 0
Mo, 21.10. 2:00 0
So, 20.10. 20:00 0
Ortszeit Schneehöhe (cm)
Di, 22.10. 15:00 0
Di, 22.10. 14:50 0
Di, 22.10. 14:40 0
Di, 22.10. 14:30 0
Di, 22.10. 14:20 0
Di, 22.10. 14:10 0
Di, 22.10. 14:00 0
Di, 22.10. 13:30 0
Di, 22.10. 13:00 0
Di, 22.10. 12:30 0
Di, 22.10. 12:00 0
Link zu dieser Seite / Seite empfehlen

Das Wetter in ...